Pagina principale
METAR-TAF:

METAR-TAF

Aeroporti :

Aeroporto di Girona

Girona, Spagna

latitudine: 41-54N, longitudine: 002-46E, altezza: 143 m

Osservazione

Il bollettino è stato emesso 12 minuti fa, alle 08:30 UTC
Vento calmo
Temperature 3°C
Umidità 93%
Pressione 1017 hPa
Visibilità 10 km o più
nessuna nube inferiore a 1500 m e nessun cumulonembo

METAR: LEGE 110830Z 00000KT CAVOK 03/02 Q1017

Ora: 09:42 (08:42 UTC)

Previsione

Il bollettino è stato emesso 3 ore e 42 minuti fa, alle 05:00 UTC
Previsione valida dal 11 alle 06 UTC al 12 alle 06 UTC
Vento 4 kt da direzioni variabili
Visibilità 10 km o più
Poco nuvoloso ad un'altezza di 6000 ft
Probabilità 30% :
Temporaneamente
dal 11 alle 06 UTC al 11 alle 08 UTC
Visibilità: 4000 m
foschia
Temporaneamente
dal 11 alle 12 UTC al 11 alle 15 UTC
Vento 10 kt da nord/nord-est

TAF: LEGE 110500Z 1106/1206 VRB04KT 9999 FEW060 TX15/1113Z TN01/1106Z PROB30 TEMPO 1106/1108 4000 BR TEMPO 1112/1115 02010KT

Osservazioni e previsioni meteorologiche di più di 4000 aeroporti (messaggi METAR e TAF).

Le stazioni disponibili sono rappresentate dai dischi gialli e rossi sulla carta.

Puntare il mouse per vedere il nome della stazione.

Clicca sopra per visualizzare le osservazioni e previsioni meteorologiche.

Per cambiare la mappa : fare clic sui pulsanti verdi con una croce nera per ingrandire, il pulsante verde con un trattino per diminuire, o sulla freccia verde per le mappe adiacenti.


METAR-TAF: